createdAt,value
2018-09-20T00:02:02.636Z,21.10
2018-09-20T00:04:33.030Z,20.97
2018-09-20T00:07:03.435Z,22.07
2018-09-20T00:09:33.755Z,20.57
2018-09-20T00:12:04.120Z,21.43
2018-09-20T00:14:34.476Z,20.80
2018-09-20T00:17:04.845Z,21.07
2018-09-20T00:19:35.190Z,21.83
2018-09-20T00:22:06.536Z,20.70
2018-09-20T00:24:36.848Z,20.17
2018-09-20T00:27:07.231Z,22.00
2018-09-20T00:29:37.572Z,20.90
2018-09-20T00:32:07.857Z,21.50
2018-09-20T00:34:38.167Z,19.80
2018-09-20T00:37:08.546Z,20.43
2018-09-20T00:39:38.834Z,22.10
2018-09-20T00:42:09.150Z,20.73
2018-09-20T00:44:39.450Z,22.30
2018-09-20T00:47:09.772Z,20.53
2018-09-20T00:49:40.102Z,20.80
2018-09-20T00:52:10.368Z,21.20
2018-09-20T00:54:40.656Z,20.90
2018-09-20T00:57:10.935Z,22.00
2018-09-20T00:59:41.200Z,21.00
2018-09-20T01:02:11.468Z,21.27
2018-09-20T01:04:41.804Z,20.13
2018-09-20T01:07:12.089Z,21.20
2018-09-20T01:09:42.374Z,21.80
2018-09-20T01:12:12.686Z,21.17
2018-09-20T01:14:43.028Z,22.73
2018-09-20T01:17:13.353Z,21.33
2018-09-20T01:19:43.670Z,21.90
2018-09-20T01:22:13.981Z,19.27
2018-09-20T01:24:44.291Z,20.80
2018-09-20T01:27:14.570Z,20.80
2018-09-20T01:29:44.876Z,21.47
2018-09-20T01:32:15.158Z,21.73
2018-09-20T01:34:45.473Z,22.50
2018-09-20T01:37:15.742Z,22.20
2018-09-20T01:39:46.014Z,20.53
2018-09-20T01:42:16.332Z,23.17
2018-09-20T01:44:46.656Z,20.60
2018-09-20T01:47:16.932Z,22.40
2018-09-20T01:49:47.240Z,21.67
2018-09-20T01:52:17.556Z,21.00
2018-09-20T01:54:47.796Z,20.60
2018-09-20T01:57:18.107Z,22.23
2018-09-20T01:59:48.434Z,22.33
2018-09-20T02:02:18.749Z,22.80
2018-09-20T02:04:49.097Z,22.60
2018-09-20T02:07:19.379Z,22.30
2018-09-20T02:09:49.736Z,22.70
2018-09-20T02:12:20.027Z,22.10
2018-09-20T02:14:50.296Z,21.60
2018-09-20T02:17:20.568Z,22.03
2018-09-20T02:19:50.882Z,23.53
2018-09-20T02:22:21.162Z,23.00
2018-09-20T02:24:51.477Z,21.90
2018-09-20T02:27:21.797Z,22.07
2018-09-20T02:29:52.123Z,22.10
2018-09-20T02:32:22.395Z,21.67
2018-09-20T02:34:52.668Z,21.57
2018-09-20T02:37:22.919Z,23.00
2018-09-20T02:39:53.230Z,23.13
2018-09-20T02:42:24.136Z,22.13
2018-09-20T02:44:54.435Z,23.63
2018-09-20T02:47:24.805Z,22.50
2018-09-20T02:49:55.087Z,21.90
2018-09-20T02:52:25.425Z,22.20
2018-09-20T02:54:55.717Z,23.07
2018-09-20T02:57:26.017Z,22.00
2018-09-20T02:59:56.301Z,22.90
2018-09-20T03:02:26.601Z,21.97
2018-09-20T03:04:56.922Z,21.93
2018-09-20T03:07:27.282Z,22.07
2018-09-20T03:09:57.601Z,23.37
2018-09-20T03:12:27.902Z,20.53
2018-09-20T03:14:58.192Z,23.13
2018-09-20T03:17:28.476Z,22.40
2018-09-20T03:19:58.772Z,23.23
2018-09-20T03:22:29.017Z,23.80
2018-09-20T03:24:59.295Z,22.77
2018-09-20T03:27:29.720Z,22.43
2018-09-20T03:30:00.011Z,21.93
2018-09-20T03:32:30.331Z,22.67
2018-09-20T03:35:00.652Z,23.83
2018-09-20T03:37:30.938Z,23.20
2018-09-20T03:40:01.478Z,21.97
2018-09-20T03:42:31.751Z,23.47
2018-09-20T03:45:02.159Z,22.00
2018-09-20T03:47:32.487Z,22.47
2018-09-20T03:50:02.783Z,23.77
2018-09-20T03:52:33.078Z,24.80
2018-09-20T03:55:03.438Z,23.53
2018-09-20T03:57:33.745Z,23.47
2018-09-20T04:00:04.088Z,22.80
2018-09-20T04:02:34.391Z,22.80
2018-09-20T04:05:04.711Z,22.60
2018-09-20T04:07:35.077Z,23.23
2018-09-20T04:10:05.557Z,22.87
2018-09-20T04:12:35.880Z,24.17
2018-09-20T04:15:06.383Z,22.97
2018-09-20T04:17:36.691Z,22.87
2018-09-20T04:20:08.069Z,24.07
2018-09-20T04:22:38.424Z,22.43
2018-09-20T04:25:08.665Z,32.00
2018-09-20T04:27:38.997Z,23.90
2018-09-20T04:30:09.334Z,26.73
2018-09-20T04:32:39.673Z,25.10
2018-09-20T04:35:09.970Z,28.10
2018-09-20T04:37:40.266Z,25.33
2018-09-20T04:40:10.670Z,29.47
2018-09-20T04:42:40.948Z,25.63
2018-09-20T04:45:11.277Z,24.10
2018-09-20T04:47:41.584Z,28.83
2018-09-20T04:50:11.873Z,28.37
2018-09-20T04:52:42.197Z,26.30
2018-09-20T04:55:12.532Z,27.10
2018-09-20T04:57:42.828Z,26.47
2018-09-20T05:00:13.231Z,25.90
2018-09-20T05:02:43.515Z,26.70
2018-09-20T05:05:13.831Z,25.33
2018-09-20T05:07:44.136Z,25.60
2018-09-20T05:10:14.518Z,26.20
2018-09-20T05:12:44.839Z,24.63
2018-09-20T05:15:15.237Z,25.03
2018-09-20T05:17:45.516Z,24.43
2018-09-20T05:20:15.888Z,24.70
2018-09-20T05:22:46.132Z,27.23
2018-09-20T05:25:16.527Z,25.20
2018-09-20T05:27:46.817Z,25.07
2018-09-20T05:30:17.161Z,25.73
2018-09-20T05:32:47.467Z,27.17
2018-09-20T05:35:17.784Z,27.87
2018-09-20T05:37:48.076Z,24.83
2018-09-20T05:40:18.641Z,25.80
2018-09-20T05:42:49.004Z,25.47
2018-09-20T05:45:19.293Z,25.40
2018-09-20T05:47:49.648Z,25.10
2018-09-20T05:50:19.904Z,26.30
2018-09-20T05:52:50.213Z,27.10
2018-09-20T05:55:20.599Z,26.33
2018-09-20T05:57:50.898Z,27.17
2018-09-20T06:00:21.273Z,26.73
2018-09-20T06:02:51.576Z,26.63
2018-09-20T06:05:22.735Z,28.17
2018-09-20T06:07:53.173Z,28.67
2018-09-20T06:10:23.837Z,27.50
2018-09-20T06:12:54.139Z,28.00
2018-09-20T06:15:24.518Z,28.00
2018-09-20T06:17:54.802Z,25.57
2018-09-20T06:20:25.533Z,27.97
2018-09-20T06:22:55.836Z,26.50
2018-09-20T06:25:26.617Z,26.50
2018-09-20T06:27:57.077Z,28.63
2018-09-20T06:30:27.358Z,26.40
2018-09-20T06:32:57.802Z,28.10
2018-09-20T06:35:28.358Z,27.70
2018-09-20T06:37:58.699Z,27.07
2018-09-20T06:40:29.054Z,84.03
2018-09-20T06:42:59.345Z,74.27
2018-09-20T06:45:29.793Z,67.20
2018-09-20T06:48:00.117Z,35.57
2018-09-20T06:50:30.833Z,28.37
2018-09-20T06:53:44.284Z,25.97
2018-09-20T06:56:14.590Z,25.73
2018-09-20T06:58:45.042Z,26.33
2018-09-20T07:01:15.424Z,25.80
2018-09-20T07:03:45.760Z,24.17
2018-09-20T07:06:16.085Z,25.57
2018-09-20T07:08:46.385Z,25.47
2018-09-20T07:11:16.802Z,31.90
2018-09-20T07:13:47.130Z,39.80
2018-09-20T07:16:17.406Z,27.37
2018-09-20T07:18:47.820Z,24.37
2018-09-20T07:21:18.208Z,25.80
2018-09-20T07:23:48.520Z,25.47
2018-09-20T07:26:18.783Z,24.80
2018-09-20T07:28:49.082Z,24.53
2018-09-20T07:31:19.393Z,25.30
2018-09-20T07:33:49.754Z,25.27
2018-09-20T07:36:20.117Z,25.13
2018-09-20T07:38:50.397Z,28.17
2018-09-20T07:41:20.715Z,26.70
2018-09-20T07:43:53.427Z,24.47
2018-09-20T07:46:23.672Z,23.63
2018-09-20T07:48:53.935Z,26.00
2018-09-20T07:51:24.234Z,23.90
2018-09-20T07:53:54.558Z,25.97
2018-09-20T07:56:24.809Z,24.40
2018-09-20T07:58:55.432Z,24.60
2018-09-20T08:01:25.732Z,24.93
2018-09-20T08:03:56.025Z,24.63
2018-09-20T08:06:26.404Z,24.37
2018-09-20T08:08:56.685Z,25.23
2018-09-20T08:11:26.994Z,23.50
2018-09-20T08:13:57.615Z,24.10
2018-09-20T08:16:27.932Z,25.00
2018-09-20T08:18:58.254Z,23.67
2018-09-20T08:21:28.507Z,23.90
2018-09-20T08:23:58.797Z,25.17
2018-09-20T08:26:29.121Z,24.27
2018-09-20T08:28:59.765Z,24.00
2018-09-20T08:31:30.026Z,22.53
2018-09-20T08:34:00.336Z,23.40
2018-09-20T08:36:30.649Z,24.80
2018-09-20T08:39:00.911Z,26.20
2018-09-20T08:41:31.173Z,23.60
2018-09-20T08:44:01.441Z,27.37
2018-09-20T08:46:31.768Z,27.10
2018-09-20T08:49:02.057Z,26.53
2018-09-20T08:51:32.354Z,27.80
2018-09-20T08:54:02.622Z,27.90
2018-09-20T08:56:32.903Z,28.10
2018-09-20T08:59:03.407Z,25.90
2018-09-20T09:01:33.696Z,26.37
2018-09-20T09:04:04.034Z,24.53
2018-09-20T09:06:34.329Z,25.70
2018-09-20T09:09:06.752Z,25.03
2018-09-20T09:11:37.579Z,23.20
2018-09-20T09:14:09.477Z,23.00
2018-09-20T09:16:39.872Z,22.30
2018-09-20T09:19:10.187Z,22.67
2018-09-20T09:21:40.520Z,22.90
2018-09-20T09:24:10.862Z,22.27
2018-09-20T09:26:41.317Z,21.90
2018-09-20T09:29:11.641Z,22.07
2018-09-20T09:31:41.921Z,21.97
2018-09-20T09:34:12.277Z,23.03
2018-09-20T09:36:42.508Z,23.00
2018-09-20T09:39:13.629Z,23.53
2018-09-20T09:41:44.527Z,22.90
2018-09-20T09:44:14.855Z,22.07
2018-09-20T09:46:45.133Z,22.07
2018-09-20T09:49:15.568Z,21.93
2018-09-20T09:51:45.884Z,22.00
2018-09-20T09:54:16.246Z,19.60
2018-09-20T09:56:46.466Z,18.50
2018-09-20T09:59:16.880Z,18.27
2018-09-20T10:01:47.157Z,20.27
2018-09-20T10:04:17.467Z,19.70
2018-09-20T10:06:47.823Z,20.83
2018-09-20T10:09:18.109Z,18.83
2018-09-20T10:11:48.554Z,19.00
2018-09-20T10:14:18.971Z,17.53
2018-09-20T10:16:49.299Z,18.40
2018-09-20T10:19:19.585Z,17.90
2018-09-20T10:21:49.955Z,19.13
2018-09-20T10:24:20.316Z,17.90
2018-09-20T10:26:50.619Z,17.93
2018-09-20T10:29:21.010Z,19.43
2018-09-20T10:31:51.366Z,18.17
2018-09-20T10:34:21.692Z,19.40
2018-09-20T10:36:51.964Z,20.20
2018-09-20T10:39:22.310Z,18.70
2018-09-20T10:41:52.625Z,18.10
2018-09-20T10:44:23.144Z,27.23
2018-09-20T10:46:53.433Z,53.87
2018-09-20T10:49:23.805Z,27.83
2018-09-20T10:51:54.302Z,18.30
2018-09-20T10:54:24.681Z,16.73
2018-09-20T10:56:54.956Z,18.67
2018-09-20T10:59:25.291Z,17.40
2018-09-20T11:01:55.581Z,17.33
2018-09-20T11:04:26.010Z,17.70
2018-09-20T11:06:56.326Z,17.23
2018-09-20T11:09:26.713Z,15.50
2018-09-20T11:11:57.057Z,14.00
2018-09-20T11:14:27.395Z,14.30
2018-09-20T11:16:57.685Z,14.40
2018-09-20T11:19:28.124Z,14.20
2018-09-20T11:21:58.489Z,14.70
2018-09-20T11:24:28.810Z,15.20
2018-09-20T11:26:59.198Z,18.13
2018-09-20T11:29:29.563Z,15.60
2018-09-20T11:32:00.112Z,14.13
2018-09-20T11:34:30.403Z,14.27
2018-09-20T11:37:00.857Z,14.37
2018-09-20T11:39:31.251Z,14.63
2018-09-20T11:42:01.634Z,14.53
2018-09-20T11:44:31.981Z,14.07
2018-09-20T11:47:02.432Z,15.30
2018-09-20T11:49:32.848Z,14.53
2018-09-20T11:52:03.425Z,14.53
2018-09-20T11:54:33.776Z,14.13
2018-09-20T11:57:04.268Z,14.90
2018-09-20T11:59:34.644Z,14.57
2018-09-20T12:02:05.145Z,15.37
2018-09-20T12:04:35.544Z,14.10
2018-09-20T12:07:05.956Z,13.97
2018-09-20T12:09:36.346Z,15.13
2018-09-20T12:12:06.825Z,15.43
2018-09-20T12:14:37.257Z,15.10
2018-09-20T12:17:07.615Z,14.43
2018-09-20T12:19:37.934Z,15.10
2018-09-20T12:22:09.987Z,15.07
2018-09-20T12:24:40.357Z,16.13
2018-09-20T12:27:10.716Z,15.70
2018-09-20T12:29:41.099Z,16.03
2018-09-20T12:32:11.719Z,16.50
2018-09-20T12:34:42.039Z,15.53
2018-09-20T12:37:12.492Z,16.50
2018-09-20T12:39:43.049Z,38.47
2018-09-20T12:42:13.713Z,32.73
2018-09-20T12:44:45.387Z,16.60
2018-09-20T12:47:15.681Z,15.23
2018-09-20T12:49:46.043Z,16.47
2018-09-20T12:52:16.399Z,16.23
2018-09-20T12:54:46.778Z,15.80
2018-09-20T12:57:17.206Z,16.57
2018-09-20T12:59:47.646Z,14.83
2018-09-20T13:02:18.286Z,15.23
2018-09-20T13:04:48.816Z,16.93
2018-09-20T13:07:19.238Z,15.80
2018-09-20T13:09:49.667Z,16.70
2018-09-20T13:12:20.080Z,16.37
2018-09-20T13:14:50.517Z,16.27
2018-09-20T13:17:20.885Z,16.73
2018-09-20T13:19:51.394Z,16.27
2018-09-20T13:22:21.819Z,19.83
2018-09-20T13:24:52.195Z,20.97
2018-09-20T13:27:22.687Z,40.90
2018-09-20T13:29:53.187Z,24.47
2018-09-20T13:32:23.535Z,16.77
2018-09-20T13:34:53.824Z,17.73
2018-09-20T13:37:24.195Z,17.50
2018-09-20T13:39:54.649Z,16.73
2018-09-20T13:42:25.027Z,17.00
2018-09-20T13:44:55.385Z,17.27
2018-09-20T13:47:25.813Z,17.63
2018-09-20T13:49:56.244Z,16.87
2018-09-20T13:52:26.622Z,16.00
2018-09-20T13:54:56.942Z,17.63
2018-09-20T13:57:27.359Z,16.27
2018-09-20T13:59:57.692Z,15.50
2018-09-20T14:02:28.033Z,16.67
2018-09-20T14:04:58.381Z,16.57
2018-09-20T14:07:28.732Z,15.50
2018-09-20T14:09:59.105Z,16.23
2018-09-20T14:12:29.447Z,16.57
2018-09-20T14:14:59.756Z,15.97
2018-09-20T14:17:30.161Z,16.53
2018-09-20T14:20:00.497Z,17.00
2018-09-20T14:22:30.841Z,15.63
2018-09-20T14:25:01.195Z,15.47
2018-09-20T14:27:31.561Z,14.87
2018-09-20T14:30:01.900Z,16.33
2018-09-20T14:32:32.334Z,15.60
2018-09-20T14:35:02.685Z,18.10
2018-09-20T14:37:32.975Z,15.37
2018-09-20T14:40:03.352Z,16.00
2018-09-20T14:42:33.722Z,17.30
2018-09-20T14:45:04.194Z,16.20
2018-09-20T14:47:34.527Z,17.00
2018-09-20T14:50:05.379Z,16.53
2018-09-20T14:52:35.744Z,16.13
2018-09-20T14:55:06.232Z,17.10
2018-09-20T14:57:36.595Z,17.00
2018-09-20T15:00:07.052Z,16.53
2018-09-20T15:02:37.304Z,16.13
2018-09-20T15:05:08.025Z,16.03
2018-09-20T15:07:38.344Z,16.77
2018-09-20T15:10:08.750Z,17.47
2018-09-20T15:12:39.128Z,15.70
2018-09-20T15:15:09.503Z,16.87
2018-09-20T15:17:39.798Z,16.90
2018-09-20T15:20:10.177Z,15.73
2018-09-20T15:22:40.494Z,16.83
2018-09-20T15:25:10.877Z,17.83
2018-09-20T15:27:41.201Z,16.80
2018-09-20T15:30:11.556Z,17.83
2018-09-20T15:32:41.976Z,17.67
2018-09-20T15:35:12.302Z,18.33
2018-09-20T15:37:42.705Z,16.77
2018-09-20T15:40:13.232Z,16.43
2018-09-20T15:42:43.613Z,16.67
2018-09-20T15:45:14.094Z,17.60
2018-09-20T15:47:44.407Z,18.77
2018-09-20T15:50:14.832Z,20.13
2018-09-20T15:52:47.059Z,19.63
2018-09-20T15:55:17.419Z,19.60
2018-09-20T15:57:47.701Z,18.57
2018-09-20T16:00:18.095Z,18.63
2018-09-20T16:02:48.392Z,17.80
2018-09-20T16:05:18.742Z,18.80
2018-09-20T16:07:49.086Z,17.50
2018-09-20T16:10:19.496Z,19.47
2018-09-20T16:12:49.823Z,19.87
2018-09-20T16:15:20.164Z,19.07
2018-09-20T16:17:50.845Z,19.27
2018-09-20T16:20:21.171Z,19.37
2018-09-20T16:22:51.518Z,18.80
2018-09-20T16:25:22.094Z,18.87
2018-09-20T16:28:17.071Z,18.83
2018-09-20T16:32:31.074Z,18.80
2018-09-20T16:35:19.603Z,19.30
2018-09-20T16:38:08.674Z,19.63
2018-09-20T16:40:43.023Z,19.60
2018-09-20T16:43:13.325Z,20.10
2018-09-20T16:45:44.268Z,19.80
2018-09-20T16:48:14.601Z,20.47
2018-09-20T16:50:44.893Z,21.23
2018-09-20T16:53:15.286Z,20.40
2018-09-20T16:55:45.567Z,22.07
2018-09-20T16:58:15.898Z,21.70
2018-09-20T17:00:46.531Z,22.80
2018-09-20T17:03:16.805Z,21.20
2018-09-20T17:05:47.989Z,21.23
2018-09-20T17:08:18.290Z,20.80
2018-09-20T17:10:49.048Z,20.23
2018-09-20T17:13:19.919Z,21.57
2018-09-20T17:15:50.410Z,22.00
2018-09-20T17:18:20.685Z,20.70
2018-09-20T17:20:51.043Z,20.60
2018-09-20T17:23:21.394Z,20.40
2018-09-20T17:25:51.797Z,20.10
2018-09-20T17:28:22.137Z,21.07
2018-09-20T17:30:52.589Z,22.27
2018-09-20T17:33:23.516Z,22.47
2018-09-20T17:35:55.169Z,22.47
2018-09-20T17:38:26.360Z,21.63
2018-09-20T17:41:15.548Z,24.20
2018-09-20T17:44:02.331Z,25.00
2018-09-20T17:46:32.918Z,22.93
2018-09-20T17:49:03.280Z,24.70
2018-09-20T17:51:34.886Z,22.70
2018-09-20T17:54:05.501Z,21.60
2018-09-20T17:56:36.529Z,20.33
2018-09-20T17:59:06.973Z,21.63
2018-09-20T18:01:37.383Z,21.87
2018-09-20T18:04:07.733Z,23.87
2018-09-20T18:06:38.147Z,22.70
2018-09-20T18:09:10.056Z,23.80
2018-09-20T18:11:40.445Z,27.47
2018-09-20T18:14:10.774Z,23.00
2018-09-20T18:16:42.249Z,22.63
2018-09-20T18:19:12.645Z,22.10
2018-09-20T18:21:43.014Z,21.63
2018-09-20T18:24:13.344Z,22.07
2018-09-20T18:26:43.677Z,23.90
2018-09-20T18:29:14.033Z,23.80
2018-09-20T18:31:44.761Z,21.47
2018-09-20T18:34:15.209Z,21.57
2018-09-20T18:36:45.500Z,22.17
2018-09-20T18:39:15.849Z,23.33
2018-09-20T18:41:46.950Z,25.27
2018-09-20T18:44:17.225Z,33.10
2018-09-20T18:46:47.693Z,22.10
2018-09-20T18:49:17.995Z,21.47
2018-09-20T18:51:48.891Z,23.07
2018-09-20T18:54:19.219Z,24.20
2018-09-20T18:56:49.878Z,23.60
2018-09-20T18:59:20.203Z,22.67
2018-09-20T19:01:50.920Z,23.60
2018-09-20T19:04:21.463Z,22.07
2018-09-20T19:06:51.914Z,23.20
2018-09-20T19:09:22.265Z,23.23
2018-09-20T19:11:52.890Z,22.87
2018-09-20T19:14:23.206Z,21.67
2018-09-20T19:16:53.900Z,23.10
2018-09-20T19:19:24.507Z,22.40
2018-09-20T19:21:54.924Z,21.97
2018-09-20T19:24:25.270Z,22.83
2018-09-20T19:26:55.616Z,23.30
2018-09-20T19:29:25.961Z,23.07
2018-09-20T19:31:56.645Z,23.33
2018-09-20T19:34:26.919Z,23.00
2018-09-20T19:36:57.204Z,23.77
2018-09-20T19:39:27.530Z,22.63
2018-09-20T19:41:57.910Z,23.00
2018-09-20T19:44:28.304Z,26.00
2018-09-20T19:46:59.157Z,23.90
2018-09-20T19:49:29.516Z,22.93
2018-09-20T19:51:59.931Z,23.00
2018-09-20T19:54:30.330Z,22.60
2018-09-20T19:57:00.689Z,23.13
2018-09-20T19:59:31.061Z,22.73
2018-09-20T20:02:01.417Z,23.23
2018-09-20T20:04:31.766Z,24.17
2018-09-20T20:07:02.115Z,23.63
2018-09-20T20:09:32.415Z,25.43
2018-09-20T20:12:02.804Z,23.30
2018-09-20T20:14:33.153Z,23.17
2018-09-20T20:17:03.522Z,23.80
2018-09-20T20:19:33.900Z,23.73
2018-09-20T20:22:04.259Z,24.60
2018-09-20T20:24:34.593Z,22.03
2018-09-20T20:27:04.946Z,23.10
2018-09-20T20:29:35.245Z,25.03
2018-09-20T20:32:05.856Z,22.93
2018-09-20T20:34:36.193Z,23.57
2018-09-20T20:37:07.500Z,24.27
2018-09-20T20:39:37.803Z,22.63
2018-09-20T20:42:08.125Z,22.50
2018-09-20T20:44:38.417Z,22.40
2018-09-20T20:47:08.722Z,23.37
2018-09-20T20:49:39.129Z,23.43
2018-09-20T20:52:09.922Z,23.30
2018-09-20T20:54:40.323Z,23.10
2018-09-20T20:57:10.598Z,21.50
2018-09-20T20:59:40.981Z,23.30
2018-09-20T21:02:11.265Z,22.70
2018-09-20T21:04:41.589Z,22.90
2018-09-20T21:07:11.865Z,23.87
2018-09-20T21:09:42.274Z,21.97
2018-09-20T21:12:12.577Z,21.17
2018-09-20T21:14:42.980Z,23.93
2018-09-20T21:17:13.331Z,22.03
2018-09-20T21:19:43.616Z,22.73
2018-09-20T21:22:13.950Z,24.10
2018-09-20T21:24:44.411Z,22.50
2018-09-20T21:27:14.748Z,23.03
2018-09-20T21:29:45.083Z,25.20
2018-09-20T21:32:15.435Z,21.63
2018-09-20T21:34:45.758Z,23.07
2018-09-20T21:37:16.068Z,22.87
2018-09-20T21:39:46.446Z,23.33
2018-09-20T21:42:16.755Z,24.23
2018-09-20T21:44:47.126Z,23.60
2018-09-20T21:47:17.412Z,23.03
2018-09-20T21:49:47.721Z,39.33
2018-09-20T21:52:17.991Z,30.53
2018-09-20T21:54:48.304Z,27.30
2018-09-20T21:57:18.729Z,22.80
2018-09-20T21:59:49.010Z,22.87
2018-09-20T22:02:24.381Z,22.80
2018-09-20T22:04:54.712Z,23.37
2018-09-20T22:07:25.083Z,23.20
2018-09-20T22:09:55.391Z,22.27
2018-09-20T22:12:25.693Z,23.03
2018-09-20T22:14:55.999Z,23.93
2018-09-20T22:17:26.457Z,21.53
2018-09-20T22:19:56.773Z,22.40
2018-09-20T22:22:27.098Z,23.10
2018-09-20T22:24:57.410Z,22.97
2018-09-20T22:27:27.755Z,22.07
2018-09-20T22:29:58.780Z,21.40
2018-09-20T22:32:29.081Z,21.50
2018-09-20T22:34:59.505Z,22.73
2018-09-20T22:37:29.798Z,23.27
2018-09-20T22:40:00.177Z,22.60
2018-09-20T22:42:30.466Z,22.27
2018-09-20T22:45:01.358Z,22.47
2018-09-20T22:47:31.923Z,23.17
2018-09-20T22:50:02.474Z,24.50
2018-09-20T22:52:32.743Z,23.67
2018-09-20T22:55:03.069Z,24.27
2018-09-20T22:57:33.430Z,24.43
2018-09-20T23:00:03.801Z,22.43
2018-09-20T23:02:34.161Z,23.50
2018-09-20T23:05:04.710Z,22.63
2018-09-20T23:07:35.242Z,24.53
2018-09-20T23:10:05.601Z,24.40
2018-09-20T23:12:35.927Z,23.33
2018-09-20T23:15:07.174Z,24.50
2018-09-20T23:17:37.495Z,23.17
2018-09-20T23:20:07.789Z,23.63
2018-09-20T23:22:38.822Z,23.50
2018-09-20T23:25:09.082Z,24.00
2018-09-20T23:27:39.666Z,22.30
2018-09-20T23:30:10.048Z,24.40
2018-09-20T23:32:40.406Z,24.27
2018-09-20T23:35:10.705Z,24.87
2018-09-20T23:37:41.028Z,23.53
2018-09-20T23:40:11.321Z,22.90
2018-09-20T23:42:41.716Z,23.50
2018-09-20T23:45:12.079Z,25.80
2018-09-20T23:47:42.385Z,23.63
2018-09-20T23:50:12.721Z,23.10
2018-09-20T23:52:43.117Z,22.97
2018-09-20T23:55:13.409Z,25.07
2018-09-20T23:57:43.733Z,25.83
